Time;durP1;ratioP1;P1;durP2;ratioP2;P2;SDS_P1;SDS_P2;PMS_P1;PMS_P2;Temp;Humidity;BMP_temperature;BMP_pressure;BME280_temperature;BME280_humidity;BME280_pressure;Samples;Min_cycle;Max_cycle;Signal;HPM_P1;HPM_P2
2021/07/17 00:01:07;;;;;;;40.92;10.60;;;;;;;13.71;84.63;102816.00;5014906;28;20033;-71
2021/07/17 00:03:32;;;;;;;42.63;10.93;;;;;;;13.73;84.98;102817.59;5014364;28;20038;-71
2021/07/17 00:05:58;;;;;;;42.45;9.75;;;;;;;13.75;84.60;102818.31;5015368;28;20470;-70
2021/07/17 00:08:23;;;;;;;39.83;11.15;;;;;;;13.81;84.66;102819.69;5014983;28;20116;-71
2021/07/17 00:10:49;;;;;;;32.17;9.95;;;;;;;13.86;84.19;102819.38;5015483;28;20035;-70
2021/07/17 00:13:17;;;;;;;32.95;9.98;;;;;;;13.91;84.36;102822.53;5015089;28;20030;-71
2021/07/17 00:15:43;;;;;;;43.20;10.95;;;;;;;13.95;84.02;102809.81;5014157;28;20418;-71
2021/07/17 00:18:09;;;;;;;26.98;10.40;;;;;;;13.99;84.09;102816.63;5013525;28;20045;-71
2021/07/17 00:20:34;;;;;;;29.20;9.82;;;;;;;14.02;84.08;102809.25;5015328;28;20034;-71
2021/07/17 00:23:00;;;;;;;28.58;9.43;;;;;;;14.05;83.80;102813.50;5014107;28;20045;-71
2021/07/17 00:25:26;;;;;;;34.25;9.82;;;;;;;14.06;83.41;102808.06;5014641;28;20474;-70
2021/07/17 00:27:52;;;;;;;31.92;9.25;;;;;;;14.11;83.38;102802.34;5015090;28;20033;-71
2021/07/17 00:30:18;;;;;;;32.40;9.75;;;;;;;14.16;83.19;102796.66;5014308;28;20132;-71
2021/07/17 00:32:46;;;;;;;31.80;11.00;;;;;;;14.18;83.09;102808.97;5030123;28;20064;-71
2021/07/17 00:35:12;;;;;;;30.23;9.80;;;;;;;14.20;82.99;102808.84;5014118;28;20048;-71
2021/07/17 00:37:37;;;;;;;38.30;10.30;;;;;;;14.21;82.83;102806.06;5014994;28;20021;-71
2021/07/17 00:40:04;;;;;;;31.88;9.40;;;;;;;14.24;82.84;102807.63;5014954;28;20038;-71
2021/07/17 00:42:31;;;;;;;30.17;9.20;;;;;;;14.25;82.49;102807.50;5014141;28;20040;-71
2021/07/17 00:44:56;;;;;;;34.55;9.52;;;;;;;14.28;82.81;102807.28;5014266;28;20030;-70
2021/07/17 00:47:23;;;;;;;32.95;10.07;;;;;;;14.31;83.10;102808.88;5014304;28;20088;-71
2021/07/17 00:49:49;;;;;;;33.72;9.30;;;;;;;14.32;82.53;102815.09;5014734;28;20371;-71
2021/07/17 00:52:14;;;;;;;31.00;9.60;;;;;;;14.35;82.29;102806.84;5012918;28;20030;-71
2021/07/17 00:54:41;;;;;;;27.42;8.88;;;;;;;14.36;82.39;102806.72;5014214;28;20463;-71
2021/07/17 00:57:08;;;;;;;30.33;10.02;;;;;;;14.39;82.84;102803.81;5014584;28;20049;-71
2021/07/17 00:59:36;;;;;;;33.58;9.48;;;;;;;14.41;82.34;102817.91;5014161;28;20099;-71
2021/07/17 01:02:03;;;;;;;31.23;9.52;;;;;;;14.42;82.27;102808.06;5014801;28;20087;-70
2021/07/17 01:04:28;;;;;;;31.88;9.38;;;;;;;14.45;82.57;102811.38;5013718;28;20041;-71
2021/07/17 01:06:57;;;;;;;31.75;9.80;;;;;;;14.47;82.89;102816.59;5014654;28;20045;-71
2021/07/17 01:09:22;;;;;;;26.15;9.20;;;;;;;14.49;82.30;102820.00;5013769;28;20029;-71
2021/07/17 01:11:48;;;;;;;28.27;9.27;;;;;;;14.49;82.61;102816.50;5014174;28;20030;-71
2021/07/17 01:14:13;;;;;;;31.75;9.68;;;;;;;14.50;82.46;102820.88;5013831;28;20038;-71
2021/07/17 01:16:39;;;;;;;34.97;9.60;;;;;;;14.52;82.32;102818.94;5014200;28;20470;-71
2021/07/17 01:19:08;;;;;;;36.65;9.88;;;;;;;14.55;81.93;102821.38;5014108;28;20065;-71
2021/07/17 01:21:34;;;;;;;26.20;9.43;;;;;;;14.54;81.79;102816.97;5013593;28;20037;-71
2021/07/17 01:24:00;;;;;;;35.72;9.73;;;;;;;14.55;82.68;102816.88;5014091;28;20029;-70
2021/07/17 01:26:26;;;;;;;41.83;9.75;;;;;;;14.53;82.49;102821.50;5013456;28;20121;-71
2021/07/17 01:28:51;;;;;;;26.67;9.10;;;;;;;14.51;82.36;102815.41;5014120;28;20151;-71
2021/07/17 01:31:18;;;;;;;35.00;9.05;;;;;;;14.51;82.59;102814.53;5013506;28;20030;-71
2021/07/17 01:33:44;;;;;;;33.55;9.35;;;;;;;14.51;82.30;102815.41;5014044;28;20057;-71
2021/07/17 01:36:09;;;;;;;41.28;10.80;;;;;;;14.52;82.81;102811.75;5013551;28;20386;-71
2021/07/17 01:38:35;;;;;;;30.65;9.38;;;;;;;14.57;82.41;102809.59;5013324;28;20064;-70
2021/07/17 01:41:01;;;;;;;36.53;9.60;;;;;;;14.59;82.35;102809.47;5013649;28;20069;-71
2021/07/17 01:43:27;;;;;;;36.17;8.63;;;;;;;14.60;82.44;102808.47;5013209;28;20033;-71
2021/07/17 01:45:58;;;;;;;30.95;9.15;;;;;;;14.61;82.11;102813.78;5013857;28;20076;-71
2021/07/17 01:48:24;;;;;;;34.92;9.60;;;;;;;14.61;81.79;102811.09;5013136;28;20038;-71
2021/07/17 01:50:49;;;;;;;36.55;9.43;;;;;;;14.63;81.76;102813.66;5013665;28;20049;-71
2021/07/17 01:53:14;;;;;;;28.40;8.65;;;;;;;14.59;81.58;102812.97;5012484;28;20393;-71
2021/07/17 01:55:40;;;;;;;38.72;9.23;;;;;;;14.49;81.71;102805.78;5011704;28;20551;-71
2021/07/17 01:58:06;;;;;;;33.50;8.88;;;;;;;14.33;82.40;102808.75;5013608;28;20462;-70
2021/07/17 02:00:32;;;;;;;40.80;10.95;;;;;;;14.18;82.75;102803.59;5012858;28;20168;-71
2021/07/17 02:02:58;;;;;;;32.38;9.52;;;;;;;14.03;83.14;102805.59;5013291;28;20120;-70
2021/07/17 02:05:24;;;;;;;44.55;10.68;;;;;;;13.92;83.95;102794.81;5012666;28;20048;-71
2021/07/17 02:07:50;;;;;;;37.35;10.25;;;;;;;13.82;84.09;102788.44;5013244;28;20484;-71
2021/07/17 02:10:27;;;;;;;43.75;10.73;;;;;;;13.73;84.67;102785.50;5013248;28;20034;-70
2021/07/17 02:12:58;;;;;;;37.75;10.25;;;;;;;13.67;84.83;102788.59;5013104;28;20041;-71
2021/07/17 02:15:24;;;;;;;37.15;11.88;;;;;;;13.62;85.64;102795.25;5012520;28;20038;-71
2021/07/17 02:17:50;;;;;;;43.15;12.18;;;;;;;13.57;85.78;102792.94;5013217;28;20029;-70
2021/07/17 02:20:16;;;;;;;45.45;12.00;;;;;;;13.52;86.15;102795.06;5013294;28;20080;-71
2021/07/17 02:22:41;;;;;;;40.45;12.25;;;;;;;13.48;86.20;102798.91;5012446;28;20525;-71
2021/07/17 02:25:07;;;;;;;43.58;12.32;;;;;;;13.42;86.18;102796.69;5011848;28;20042;-70
2021/07/17 02:27:33;;;;;;;46.30;13.27;;;;;;;13.37;86.46;102792.50;5012438;28;20126;-71
2021/07/17 02:29:58;;;;;;;51.15;13.45;;;;;;;13.32;86.40;102783.94;5013185;28;20419;-71
2021/07/17 02:32:24;;;;;;;44.80;13.68;;;;;;;13.28;86.98;102795.81;5012416;28;20065;-71
2021/07/17 02:34:49;;;;;;;44.58;13.23;;;;;;;13.26;87.13;102791.56;5012575;28;20048;-71
2021/07/17 02:37:15;;;;;;;49.60;11.65;;;;;;;13.21;87.26;102800.75;5012738;28;20036;-71
2021/07/17 02:39:41;;;;;;;44.40;11.90;;;;;;;13.16;87.07;102794.03;5012111;28;20038;-70
2021/07/17 02:42:06;;;;;;;63.00;14.07;;;;;;;13.12;87.37;102796.06;5012931;28;20117;-71
2021/07/17 02:44:32;;;;;;;40.70;13.02;;;;;;;13.10;87.28;102789.13;5012102;28;20192;-70
2021/07/17 02:46:57;;;;;;;49.00;14.50;;;;;;;13.06;87.46;102788.47;5012569;28;20375;-70
2021/07/17 02:49:23;;;;;;;61.03;14.55;;;;;;;13.05;87.71;102790.28;5012129;28;20034;-71
2021/07/17 02:51:48;;;;;;;55.70;13.40;;;;;;;13.02;87.95;102795.00;5012904;28;20030;-69
2021/07/17 02:54:14;;;;;;;54.45;12.77;;;;;;;12.98;88.19;102786.31;5012843;28;20382;-70
2021/07/17 02:56:39;;;;;;;46.78;13.07;;;;;;;12.96;88.10;102788.25;5012121;28;20405;-70
2021/07/17 02:59:05;;;;;;;57.00;14.02;;;;;;;12.93;88.25;102796.50;5012485;28;20042;-70
2021/07/17 03:01:30;;;;;;;53.85;13.57;;;;;;;12.90;88.20;102799.38;5012006;28;20049;-70
2021/07/17 03:03:55;;;;;;;52.03;13.35;;;;;;;12.87;88.50;102802.28;5012631;28;20041;-71
2021/07/17 03:06:21;;;;;;;73.72;14.25;;;;;;;12.83;88.67;102801.59;5012090;28;20459;-70
2021/07/17 03:08:46;;;;;;;52.38;13.38;;;;;;;12.80;88.81;102801.81;5011825;28;20045;-71
2021/07/17 03:11:11;;;;;;;52.55;13.98;;;;;;;12.75;89.07;102795.97;5012899;28;20061;-70
2021/07/17 03:13:37;;;;;;;72.18;16.15;;;;;;;12.74;89.04;102796.06;5011971;28;20034;-71
2021/07/17 03:16:03;;;;;;;65.40;15.30;;;;;;;12.71;89.07;102805.13;5012363;28;20033;-71
2021/07/17 03:18:28;;;;;;;59.67;15.65;;;;;;;12.69;89.24;102807.91;5011721;28;20034;-71
2021/07/17 03:20:54;;;;;;;59.00;14.85;;;;;;;12.66;89.61;102808.13;5012245;28;20033;-71
2021/07/17 03:23:19;;;;;;;60.97;16.65;;;;;;;12.66;89.59;102804.59;5012227;28;20030;-70
2021/07/17 03:25:44;;;;;;;54.47;14.75;;;;;;;12.62;89.70;102795.09;5011822;28;20381;-71
2021/07/17 03:28:10;;;;;;;76.88;17.02;;;;;;;12.62;89.60;102795.09;5012391;28;20030;-71
2021/07/17 03:30:36;;;;;;;50.17;14.45;;;;;;;12.60;89.99;102797.88;5011613;28;20114;-71
2021/07/17 03:33:01;;;;;;;56.03;15.50;;;;;;;12.59;90.17;102792.63;5012465;28;20030;-71
2021/07/17 03:35:27;;;;;;;66.07;15.63;;;;;;;12.55;90.08;102794.63;5011753;28;20026;-71
2021/07/17 03:37:52;;;;;;;82.40;17.90;;;;;;;12.57;90.24;102794.53;5012156;28;20466;-71
2021/07/17 03:40:17;;;;;;;88.05;18.45;;;;;;;12.58;90.43;102794.41;5012376;28;20033;-70
2021/07/17 03:42:43;;;;;;;83.70;17.40;;;;;;;12.61;90.61;102791.53;5011495;28;20034;-71
2021/07/17 03:45:09;;;;;;;66.70;16.60;;;;;;;12.62;90.70;102797.75;5012334;28;20398;-71
2021/07/17 03:47:34;;;;;;;70.50;16.63;;;;;;;12.64;90.80;102801.16;5011539;28;20080;-71
2021/07/17 03:50:00;;;;;;;72.07;16.92;;;;;;;12.65;91.03;102798.38;5010735;28;20022;-71
2021/07/17 03:52:25;;;;;;;70.38;17.20;;;;;;;12.66;91.05;102805.44;5011867;28;20037;-70
2021/07/17 03:54:51;;;;;;;80.18;17.77;;;;;;;12.66;91.08;102805.44;5011403;28;20084;-71
2021/07/17 03:57:16;;;;;;;74.95;18.58;;;;;;;12.69;90.95;102807.06;5012243;28;20054;-71
2021/07/17 03:59:41;;;;;;;77.70;17.92;;;;;;;12.69;91.20;102807.06;5011572;28;20042;-71
2021/07/17 04:02:07;;;;;;;66.05;16.30;;;;;;;12.70;91.26;102812.31;5011903;28;20050;-71
2021/07/17 04:04:39;;;;;;;57.90;14.77;;;;;;;12.66;91.21;102808.13;5011292;28;20026;-71
2021/07/17 04:07:04;;;;;;;61.03;15.23;;;;;;;12.66;91.36;102809.94;5011938;28;20100;-71
2021/07/17 04:09:29;;;;;;;80.47;17.70;;;;;;;12.68;91.43;102816.88;5012328;28;20418;-70
2021/07/17 04:11:55;;;;;;;70.55;16.75;;;;;;;12.73;91.31;102810.38;5011933;28;20037;-70
2021/07/17 04:14:20;;;;;;;72.47;16.98;;;;;;;12.76;91.56;102808.31;5011938;28;20394;-71
2021/07/17 04:16:47;;;;;;;59.70;15.57;;;;;;;12.77;91.53;102809.22;5011316;28;20367;-71
2021/07/17 04:19:13;;;;;;;64.38;15.02;;;;;;;12.73;91.73;102808.53;5013320;28;20034;-71
2021/07/17 04:21:38;;;;;;;69.22;17.92;;;;;;;12.72;91.39;102811.31;5014785;28;20099;-71
2021/07/17 04:24:04;;;;;;;77.40;17.65;;;;;;;12.75;91.53;102819.13;5015408;28;20026;-71
2021/07/17 04:26:29;;;;;;;86.22;19.60;;;;;;;12.80;91.69;102819.69;5015202;28;20125;-71
2021/07/17 04:28:54;;;;;;;64.13;16.77;;;;;;;12.86;91.87;102816.59;4997064;28;20030;-70
2021/07/17 04:31:20;;;;;;;92.55;18.65;;;;;;;12.87;91.91;102818.31;5015154;28;20030;-71
2021/07/17 04:33:45;;;;;;;67.57;15.23;;;;;;;12.88;91.54;102818.19;5013193;28;20080;-71
2021/07/17 04:36:11;;;;;;;67.50;17.80;;;;;;;12.92;91.71;102818.81;5015163;28;20030;-70
2021/07/17 04:38:37;;;;;;;82.63;18.52;;;;;;;13.03;91.86;102820.75;5013468;28;20113;-71
2021/07/17 04:41:02;;;;;;;84.35;19.20;;;;;;;13.11;92.33;102823.75;5015056;28;20165;-71
2021/07/17 04:43:28;;;;;;;93.70;20.52;;;;;;;13.19;92.14;102824.06;5014956;28;20033;-71
2021/07/17 04:45:53;;;;;;;83.85;18.88;;;;;;;13.28;92.16;102829.72;5014220;28;20340;-71
2021/07/17 04:48:18;;;;;;;67.22;16.13;;;;;;;13.30;92.29;102833.13;5014717;28;20037;-71
2021/07/17 04:50:44;;;;;;;63.28;15.40;;;;;;;13.34;92.38;102832.00;5013936;28;20034;-70
2021/07/17 04:53:09;;;;;;;68.07;14.70;;;;;;;13.36;92.29;102835.41;5014781;28;20053;-71
2021/07/17 04:55:35;;;;;;;65.45;16.55;;;;;;;13.37;92.29;102834.44;5014724;28;20124;-71
2021/07/17 04:58:00;;;;;;;66.57;16.25;;;;;;;13.45;92.26;102836.56;5014267;28;20088;-71
2021/07/17 05:00:26;;;;;;;78.72;18.70;;;;;;;13.51;92.32;102830.78;5014603;28;20103;-70
2021/07/17 05:02:55;;;;;;;69.95;15.98;;;;;;;13.61;92.50;102837.19;5013893;28;20030;-71
2021/07/17 05:05:23;;;;;;;66.93;14.63;;;;;;;13.69;92.39;102829.47;5014587;28;20467;-70
2021/07/17 05:07:50;;;;;;;80.28;15.38;;;;;;;13.80;92.28;102835.88;5013862;28;20030;-71
2021/07/17 05:10:18;;;;;;;60.95;14.48;;;;;;;13.87;92.55;102840.66;5014456;28;20099;-71
2021/07/17 05:12:44;;;;;;;76.60;14.43;;;;;;;13.93;92.53;102834.00;5013808;28;20030;-71
2021/07/17 05:15:11;;;;;;;59.42;14.10;;;;;;;13.99;92.20;102832.69;5014248;28;20033;-70
2021/07/17 05:17:37;;;;;;;59.92;13.65;;;;;;;14.05;92.41;102826.91;5014177;28;20033;-71
2021/07/17 05:20:05;;;;;;;57.17;14.90;;;;;;;14.08;92.45;102832.88;5014185;28;20592;-71
2021/07/17 05:22:30;;;;;;;53.38;11.43;;;;;;;14.16;92.16;102834.97;5014271;28;20034;-71
2021/07/17 05:24:56;;;;;;;57.58;11.98;;;;;;;14.23;92.29;102838.06;5013573;28;20041;-71
2021/07/17 05:27:21;;;;;;;47.90;10.20;;;;;;;14.27;91.75;102824.31;5014394;28;20474;-71
2021/07/17 05:29:47;;;;;;;55.13;10.00;;;;;;;14.36;91.49;102832.63;5013310;28;20053;-71
2021/07/17 05:32:13;;;;;;;50.13;9.45;;;;;;;14.41;91.21;102831.31;5013896;28;20052;-71
2021/07/17 05:34:40;;;;;;;49.33;8.88;;;;;;;14.48;91.11;102834.41;5013757;28;20522;-71
2021/07/17 05:37:06;;;;;;;39.65;8.57;;;;;;;14.54;90.68;102830.38;5013154;28;20030;-71
2021/07/17 05:39:31;;;;;;;35.55;7.88;;;;;;;14.61;90.80;102832.53;5013916;28;20454;-71
2021/07/17 05:41:56;;;;;;;40.95;9.20;;;;;;;14.69;90.10;102839.97;5013154;28;20088;-71
2021/07/17 05:44:22;;;;;;;34.10;9.05;;;;;;;14.76;90.04;102843.91;5013819;28;20030;-70
2021/07/17 05:46:47;;;;;;;32.92;6.95;;;;;;;14.89;89.39;102842.94;5013013;28;20029;-71
2021/07/17 05:49:12;;;;;;;36.38;7.93;;;;;;;15.01;89.17;102846.50;5013452;28;20120;-71
2021/07/17 05:51:38;;;;;;;33.15;6.68;;;;;;;15.09;88.80;102844.94;5013801;28;20499;-71
2021/07/17 05:54:03;;;;;;;36.47;6.10;;;;;;;15.20;88.42;102843.19;5013054;28;20386;-71
2021/07/17 05:56:28;;;;;;;30.70;6.45;;;;;;;15.29;88.29;102851.38;5013451;28;20065;-70
2021/07/17 05:58:54;;;;;;;38.58;6.32;;;;;;;15.42;87.86;102847.72;5012847;28;20109;-70
2021/07/17 06:01:19;;;;;;;37.53;6.28;;;;;;;15.53;87.76;102847.72;5013319;28;20038;-70
2021/07/17 06:03:46;;;;;;;36.00;6.47;;;;;;;15.64;87.52;102847.72;5012722;28;20042;-70
2021/07/17 06:06:11;;;;;;;26.55;5.72;;;;;;;15.82;86.83;102850.78;5013479;28;20034;-70
2021/07/17 06:08:37;;;;;;;30.15;6.18;;;;;;;15.96;85.81;102843.41;5013397;28;20124;-70
2021/07/17 06:11:02;;;;;;;22.75;5.10;;;;;;;16.16;84.93;102849.84;5012698;28;20508;-70
2021/07/17 06:13:27;;;;;;;26.70;5.40;;;;;;;16.32;84.91;102849.44;5013386;28;20116;-70
2021/07/17 06:15:53;;;;;;;29.42;5.45;;;;;;;16.48;83.28;102847.16;5012516;28;20120;-70
2021/07/17 06:18:18;;;;;;;30.83;5.60;;;;;;;16.63;82.88;102852.19;5013067;28;20556;-70
2021/07/17 06:20:44;;;;;;;22.80;4.85;;;;;;;16.73;82.76;102861.19;5012916;28;20045;-70
2021/07/17 06:23:10;;;;;;;25.88;6.70;;;;;;;16.85;81.02;102861.97;5011259;28;20034;-69
2021/07/17 06:25:36;;;;;;;28.15;6.85;;;;;;;16.95;80.65;102867.47;5013117;28;20531;-69
2021/07/17 06:28:01;;;;;;;26.83;5.65;;;;;;;17.06;80.36;102867.38;5012359;28;20042;-70
2021/07/17 06:30:27;;;;;;;22.58;4.90;;;;;;;17.16;80.46;102864.75;5012778;28;20033;-70
2021/07/17 06:32:52;;;;;;;16.70;4.55;;;;;;;17.24;80.37;102860.41;5012127;28;20037;-70
2021/07/17 06:35:17;;;;;;;29.23;4.75;;;;;;;17.34;79.37;102865.81;5012837;28;20080;-70
2021/07/17 06:37:43;;;;;;;21.23;4.63;;;;;;;17.51;80.31;102871.56;5012904;28;20042;-69
2021/07/17 06:40:14;;;;;;;27.27;5.47;;;;;;;17.61;78.46;102870.59;5012196;28;20037;-70
2021/07/17 06:42:48;;;;;;;20.95;4.68;;;;;;;17.69;78.36;102869.06;5012287;28;20026;-70
2021/07/17 06:45:16;;;;;;;15.73;3.78;;;;;;;17.77;78.68;102878.16;5012656;28;20034;-70
2021/07/17 06:47:42;;;;;;;12.65;3.70;;;;;;;17.87;78.03;102877.34;5012587;28;20033;-70
2021/07/17 06:50:09;;;;;;;18.60;4.38;;;;;;;17.98;77.67;102888.88;5012004;28;20470;-70
2021/07/17 06:52:35;;;;;;;19.30;4.38;;;;;;;18.10;77.71;102886.94;5012661;28;20034;-71
2021/07/17 06:55:02;;;;;;;21.17;4.10;;;;;;;18.26;77.62;102889.09;5011776;28;20037;-71
2021/07/17 06:57:27;;;;;;;13.55;3.63;;;;;;;18.38;76.29;102892.50;5012717;28;20053;-71
2021/07/17 06:59:52;;;;;;;22.13;4.38;;;;;;;18.53;75.31;102889.41;5011943;28;20042;-73
2021/07/17 07:02:18;;;;;;;16.63;4.13;;;;;;;18.67;74.92;102891.63;5012561;28;20026;-71
2021/07/17 07:04:43;;;;;;;16.88;4.45;;;;;;;18.73;74.43;102892.91;5012156;28;20038;-70
2021/07/17 07:07:09;;;;;;;16.40;3.97;;;;;;;18.77;73.02;102892.47;5011998;28;20052;-71
2021/07/17 07:09:34;;;;;;;23.25;3.97;;;;;;;18.93;73.76;102891.94;5012550;28;20033;-71
2021/07/17 07:11:59;;;;;;;19.48;3.88;;;;;;;19.08;73.24;102895.03;5011786;28;20037;-71
2021/07/17 07:14:25;;;;;;;14.98;4.18;;;;;;;19.12;72.02;102892.88;5009585;28;20041;-70
2021/07/17 07:16:50;;;;;;;16.23;3.67;;;;;;;19.29;72.00;102894.00;5007877;28;20038;-71
2021/07/17 07:19:16;;;;;;;15.63;3.72;;;;;;;19.50;72.18;102893.75;5008755;28;20462;-69
2021/07/17 07:21:42;;;;;;;18.42;3.83;;;;;;;19.60;71.36;102893.72;5009681;28;20042;-73
2021/07/17 07:24:07;;;;;;;15.52;3.75;;;;;;;19.72;69.66;102901.47;5009045;28;20029;-75
2021/07/17 07:26:33;;;;;;;14.27;3.95;;;;;;;19.79;68.28;102899.03;5009402;28;20498;-77
2021/07/17 07:28:59;;;;;;;14.02;3.33;;;;;;;19.89;70.95;102902.53;5007593;28;20453;-75
2021/07/17 07:31:25;;;;;;;12.68;3.60;;;;;;;20.05;70.11;102909.16;5008208;28;20125;-78
2021/07/17 07:33:51;;;;;;;17.15;4.07;;;;;;;20.16;68.27;102911.63;5009681;28;20041;-77
2021/07/17 07:36:17;;;;;;;13.73;3.35;;;;;;;20.29;68.29;102908.56;5008547;28;20038;-78
2021/07/17 07:38:43;;;;;;;12.68;3.58;;;;;;;20.38;67.73;102902.22;5009105;28;20037;-80
2021/07/17 07:41:09;;;;;;;13.60;3.42;;;;;;;20.46;66.91;102906.84;5007590;28;20394;-78
2021/07/17 07:43:34;;;;;;;17.00;3.80;;;;;;;20.57;67.53;102909.34;5010222;28;20544;-77
2021/07/17 07:46:00;;;;;;;14.52;3.70;;;;;;;20.59;64.58;102915.41;5008813;28;20046;-76
2021/07/17 07:48:26;;;;;;;12.90;3.60;;;;;;;20.75;65.44;102914.75;5009968;28;20080;-81
2021/07/17 07:50:51;;;;;;;10.98;3.20;;;;;;;20.87;63.90;102909.09;5009272;28;20088;-75
2021/07/17 07:53:16;;;;;;;18.98;3.65;;;;;;;20.98;63.62;102911.53;5008863;28;20455;-78
2021/07/17 07:55:42;;;;;;;8.15;3.30;;;;;;;20.98;62.23;102911.53;5011924;28;20037;-77
2021/07/17 07:58:07;;;;;;;12.15;2.97;;;;;;;21.09;61.88;102902.31;5012072;28;20437;-78
2021/07/17 08:00:33;;;;;;;11.35;2.90;;;;;;;21.24;62.87;102903.44;5012620;28;20506;-77
2021/07/17 08:02:58;;;;;;;15.57;3.55;;;;;;;21.42;63.24;102900.66;5012048;28;20044;-81
2021/07/17 08:05:24;;;;;;;11.50;3.53;;;;;;;21.55;62.01;102904.81;5012973;28;20059;-75
2021/07/17 08:07:50;;;;;;;14.77;3.05;;;;;;;21.59;61.94;102898.91;5011973;28;20038;-77
2021/07/17 08:10:15;;;;;;;10.70;3.40;;;;;;;21.67;61.30;102901.63;4994945;28;20037;-76
2021/07/17 08:12:40;;;;;;;13.15;3.33;;;;;;;21.76;61.19;102904.38;5012723;28;20029;-74
2021/07/17 08:15:07;;;;;;;12.65;3.22;;;;;;;21.77;61.23;102906.09;5010684;28;20057;-78
2021/07/17 08:17:32;;;;;;;10.10;3.03;;;;;;;21.80;61.21;102892.22;5012885;28;20513;-77
2021/07/17 08:19:57;;;;;;;14.77;3.10;;;;;;;21.73;61.47;102899.28;5012810;28;20069;-78
2021/07/17 08:22:23;;;;;;;12.23;3.20;;;;;;;21.78;62.33;102903.22;5012110;28;20368;-77
2021/07/17 08:24:48;;;;;;;15.90;3.50;;;;;;;21.86;61.80;102905.09;5012613;28;20065;-74
2021/07/17 08:27:14;;;;;;;9.13;2.83;;;;;;;22.08;61.10;102905.50;5011918;28;20072;-73
2021/07/17 08:29:39;;;;;;;12.48;3.30;;;;;;;22.21;60.73;102908.56;5012101;28;20066;-75
2021/07/17 08:32:06;;;;;;;16.88;3.90;;;;;;;22.29;59.40;102907.75;5011670;28;20038;-74
2021/07/17 08:34:31;;;;;;;13.93;3.22;;;;;;;22.51;59.94;102908.97;5012258;28;20041;-75
2021/07/17 08:36:56;;;;;;;14.15;3.33;;;;;;;22.62;58.75;102921.38;5012302;28;20099;-73
2021/07/17 08:39:22;;;;;;;15.32;3.38;;;;;;;22.78;58.28;102915.09;5011549;28;20403;-73
2021/07/17 08:41:49;;;;;;;18.55;3.78;;;;;;;22.84;57.83;102912.56;5012284;28;20467;-75
2021/07/17 08:44:17;;;;;;;15.32;3.22;;;;;;;23.03;57.98;102910.50;5011255;28;20038;-77
2021/07/17 08:46:44;;;;;;;14.13;3.13;;;;;;;23.39;56.54;102910.97;5030739;28;20048;-82
2021/07/17 08:49:10;;;;;;;15.13;3.33;;;;;;;23.75;55.80;102915.06;4146942;28;10000878;-79
2021/07/17 08:51:37;;;;;;;15.32;3.25;;;;;;;23.99;52.99;102918.72;5017308;28;20066;-77
2021/07/17 08:54:03;;;;;;;10.50;2.85;;;;;;;24.38;54.40;102910.47;5011820;28;20437;-77
2021/07/17 08:56:29;;;;;;;14.00;3.08;;;;;;;25.03;52.61;102913.69;5010792;28;20037;-74
2021/07/17 08:58:54;;;;;;;15.32;2.90;;;;;;;25.45;50.60;102914.97;5009225;28;20057;-77
2021/07/17 09:01:20;;;;;;;17.25;2.92;;;;;;;26.00;49.58;102904.56;5010331;28;20064;-80
2021/07/17 09:03:47;;;;;;;8.82;2.85;;;;;;;26.31;48.03;102913.50;5013963;28;20116;-81
2021/07/17 09:06:13;;;;;;;11.77;3.00;;;;;;;26.90;46.08;102906.88;5011985;28;20069;-80
2021/07/17 09:08:38;;;;;;;12.70;2.80;;;;;;;27.10;45.86;102907.88;5014389;28;20438;-73
2021/07/17 09:11:04;;;;;;;10.02;3.00;;;;;;;27.56;45.06;102903.75;5014240;28;20033;-76
2021/07/17 09:13:34;;;;;;;13.23;3.03;;;;;;;27.73;44.88;102904.22;5013272;28;20033;-84
2021/07/17 09:15:59;;;;;;;13.83;3.37;;;;;;;28.17;43.30;102909.44;5026859;28;20061;-77
2021/07/17 09:18:48;;;;;;;10.98;3.33;;;;;;;28.20;43.32;102903.53;5032852;28;20300;-85
2021/07/17 09:21:30;;;;;;;11.05;3.08;;;;;;;28.47;41.91;102904.44;5032685;28;20036;-79
2021/07/17 09:24:01;;;;;;;9.30;2.85;;;;;;;28.71;42.10;102903.00;5033715;28;20381;-80
2021/07/17 09:26:36;;;;;;;16.50;3.72;;;;;;;28.60;42.64;102907.19;5031781;28;20057;-78
2021/07/17 09:29:10;;;;;;;12.07;3.20;;;;;;;29.22;40.91;102900.63;5033927;28;20022;-76
2021/07/17 09:31:54;;;;;;;14.45;3.20;;;;;;;29.44;40.80;102901.16;5032607;28;20120;-78
2021/07/17 09:34:24;;;;;;;10.52;3.10;;;;;;;29.27;40.53;102898.06;5032963;28;20035;-79
2021/07/17 09:36:57;;;;;;;13.23;3.53;;;;;;;29.40;39.46;102895.28;5032599;28;20382;-74
2021/07/17 09:39:28;;;;;;;11.85;3.47;;;;;;;29.23;40.05;102899.56;5032185;28;20025;-75
2021/07/17 09:41:54;;;;;;;10.68;3.00;;;;;;;29.03;40.22;102892.19;5032999;28;20033;-75
2021/07/17 09:44:24;;;;;;;11.25;2.80;;;;;;;29.55;39.22;102892.28;5031830;28;20040;-77
2021/07/17 09:46:50;;;;;;;14.07;3.75;;;;;;;29.74;39.95;102898.75;5033186;28;20060;-75
2021/07/17 09:49:19;;;;;;;12.40;3.15;;;;;;;30.03;39.77;102888.25;5032028;28;20033;-77
2021/07/17 09:51:45;;;;;;;13.05;3.60;;;;;;;29.98;38.37;102888.94;5032985;28;20052;-77
2021/07/17 09:54:11;;;;;;;12.85;3.35;;;;;;;29.48;38.87;102896.94;5032606;28;20037;-83
2021/07/17 09:56:40;;;;;;;10.57;3.10;;;;;;;29.42;40.25;102884.94;5032143;28;20032;-79
2021/07/17 09:59:13;;;;;;;10.70;3.30;;;;;;;29.28;39.41;102883.31;5032784;28;20548;-75
2021/07/17 10:01:44;;;;;;;11.35;3.13;;;;;;;28.87;40.32;102888.00;5032231;28;20042;-79
2021/07/17 10:04:11;;;;;;;8.15;3.05;;;;;;;28.73;41.28;102889.91;5032590;28;20042;-73
2021/07/17 10:06:42;;;;;;;12.48;3.03;;;;;;;29.00;42.05;102892.63;5031849;28;20095;-75
2021/07/17 10:09:14;;;;;;;12.32;2.83;;;;;;;29.45;39.63;102892.72;5032895;28;20481;-77
2021/07/17 10:11:42;;;;;;;12.50;3.20;;;;;;;29.63;39.54;102889.28;5031750;28;20057;-82
2021/07/17 10:14:16;;;;;;;11.32;3.25;;;;;;;29.65;39.68;102886.31;5032538;28;20029;-82
2021/07/17 10:16:42;;;;;;;11.98;3.10;;;;;;;30.12;39.19;102880.59;5030939;28;20058;-78
2021/07/17 10:19:07;;;;;;;7.80;2.95;;;;;;;30.15;38.34;102886.47;5031485;28;20029;-83
2021/07/17 10:21:35;;;;;;;10.38;3.17;;;;;;;30.20;38.23;102889.41;5031589;28;20491;-79
2021/07/17 10:24:01;;;;;;;12.10;2.85;;;;;;;30.20;38.13;102900.41;5032210;28;20030;-78
2021/07/17 10:26:27;;;;;;;11.98;2.90;;;;;;;29.67;37.96;102886.97;5014444;28;20410;-77
2021/07/17 10:28:59;;;;;;;10.30;2.92;;;;;;;29.55;39.57;102890.38;5009543;28;20033;-76
2021/07/17 10:31:24;;;;;;;13.00;3.45;;;;;;;29.77;38.94;102897.44;5009525;28;20080;-84
2021/07/17 10:33:50;;;;;;;13.00;3.10;;;;;;;29.93;38.70;102891.47;5009719;28;20034;-74
2021/07/17 10:36:17;;;;;;;12.23;3.13;;;;;;;30.03;38.83;102893.75;5009653;28;20065;-74
2021/07/17 10:38:44;;;;;;;9.63;3.03;;;;;;;29.77;38.60;102894.69;5009387;28;20478;-76
2021/07/17 10:41:14;;;;;;;11.90;3.25;;;;;;;30.15;38.68;102891.13;5009151;28;20032;-75
2021/07/17 10:43:41;;;;;;;11.98;2.90;;;;;;;29.97;37.96;102884.50;5008957;28;20343;-76
2021/07/17 10:46:29;;;;;;;9.40;2.47;;;;;;;29.77;38.52;102890.06;5025200;28;20528;-76
2021/07/17 10:48:56;;;;;;;10.48;2.70;;;;;;;29.73;38.20;102886.06;5031017;28;20033;-78
2021/07/17 10:51:27;;;;;;;9.88;2.38;;;;;;;29.95;37.67;102892.13;5031708;28;20049;-77
2021/07/17 10:53:55;;;;;;;8.50;2.88;;;;;;;29.81;37.60;102894.09;5032259;28;20029;-74
2021/07/17 10:56:29;;;;;;;12.63;3.03;;;;;;;29.74;38.47;102887.78;5031437;28;20030;-79
2021/07/17 10:58:58;;;;;;;12.35;3.28;;;;;;;29.16;39.39;102896.81;5032354;28;20570;-75
2021/07/17 11:01:25;;;;;;;9.45;2.92;;;;;;;29.08;39.26;102899.78;5030486;28;20034;-78
2021/07/17 11:03:52;;;;;;;8.25;2.65;;;;;;;28.59;40.02;102897.28;5032594;28;20042;-78
2021/07/17 11:06:33;;;;;;;11.25;2.88;;;;;;;28.80;40.29;102885.28;5032361;28;20041;-76
2021/07/17 11:09:30;;;;;;;14.43;3.92;;;;;;;28.85;40.53;102890.13;5032141;28;20025;-76
2021/07/17 11:12:18;;;;;;;12.48;3.35;;;;;;;29.33;39.49;102897.22;5031953;28;20029;-76